Time;durP1;ratioP1;P1;durP2;ratioP2;P2;SDS_P1;SDS_P2;PMS_P1;PMS_P2;Temp;Humidity;BMP_temperature;BMP_pressure;BME280_temperature;BME280_humidity;BME280_pressure;Samples;Min_cycle;Max_cycle;Signal;HPM_P1;HPM_P2
2021/11/01 00:00:13;;;;;;;3.50;2.17;;;10.60;95.80;;;;;;5018908;28;20033;-82
2021/11/01 00:02:39;;;;;;;3.25;2.22;;;10.60;95.70;;;;;;5019866;28;20053;-81
2021/11/01 00:05:06;;;;;;;2.78;2.58;;;10.60;95.50;;;;;;5020855;28;20022;-81
2021/11/01 00:07:32;;;;;;;2.67;2.17;;;10.60;95.50;;;;;;5031195;28;20497;-82
2021/11/01 00:09:59;;;;;;;2.92;2.38;;;10.60;95.40;;;;;;5020349;28;20037;-81
2021/11/01 00:12:29;;;;;;;6.20;2.15;;;10.50;95.40;;;;;;5020076;28;20054;-82
2021/11/01 00:14:55;;;;;;;3.78;2.83;;;10.50;95.30;;;;;;5021262;28;20018;-82
2021/11/01 00:17:22;;;;;;;3.53;2.30;;;10.60;95.60;;;;;;5020987;28;20026;-81
2021/11/01 00:19:47;;;;;;;2.97;2.17;;;10.50;95.60;;;;;;5019971;28;20026;-82
2021/11/01 00:22:13;;;;;;;2.15;1.95;;;10.50;95.40;;;;;;5019223;28;20152;-81
2021/11/01 00:24:39;;;;;;;2.55;2.00;;;10.50;95.80;;;;;;5020764;28;20378;-82
2021/11/01 00:27:05;;;;;;;2.30;2.10;;;10.50;95.60;;;;;;5020190;28;20037;-82
2021/11/01 00:29:30;;;;;;;3.00;1.98;;;10.40;95.60;;;;;;5019181;28;20305;-82
2021/11/01 00:31:56;;;;;;;2.40;1.73;;;10.40;95.70;;;;;;5019021;28;20037;-82
2021/11/01 00:34:22;;;;;;;1.80;1.70;;;10.30;95.80;;;;;;5020051;28;20168;-81
2021/11/01 00:36:47;;;;;;;1.80;1.70;;;10.20;95.90;;;;;;5020151;28;20061;-81
2021/11/01 00:39:13;;;;;;;1.88;1.70;;;10.20;96.00;;;;;;5020989;28;20030;-82
2021/11/01 00:41:39;;;;;;;1.90;1.73;;;10.20;96.00;;;;;;5002105;28;20631;-81
2021/11/01 00:44:05;;;;;;;2.40;1.83;;;10.20;96.20;;;;;;5019174;28;20085;-81
2021/11/01 00:46:32;;;;;;;2.45;2.17;;;10.20;96.30;;;;;;5021393;28;20058;-82
2021/11/01 00:48:58;;;;;;;2.40;1.92;;;10.10;96.40;;;;;;5001594;28;20121;-81
2021/11/01 00:51:24;;;;;;;1.95;1.70;;;10.10;96.50;;;;;;5021220;28;20040;-82
2021/11/01 00:53:50;;;;;;;2.17;1.98;;;10.10;96.60;;;;;;5022914;28;20304;-81
2021/11/01 00:56:18;;;;;;;2.80;2.10;;;10.10;96.80;;;;;;5023106;28;20024;-81
2021/11/01 00:58:44;;;;;;;2.50;2.00;;;10.10;96.90;;;;;;5027707;28;20050;-81
2021/11/01 01:01:10;;;;;;;2.33;1.98;;;10.00;97.00;;;;;;5035851;28;20028;-80
2021/11/01 01:03:37;;;;;;;2.30;1.65;;;10.00;97.20;;;;;;5038654;28;20407;-81
2021/11/01 01:06:03;;;;;;;3.08;1.98;;;10.00;97.40;;;;;;5018625;28;20026;-81
2021/11/01 01:08:29;;;;;;;3.67;2.33;;;9.90;97.50;;;;;;5018395;28;20022;-81
2021/11/01 01:10:55;;;;;;;2.45;2.25;;;9.90;97.60;;;;;;5039435;28;20014;-79
2021/11/01 01:13:24;;;;;;;2.83;2.15;;;9.80;97.80;;;;;;5038829;28;20025;-80
2021/11/01 01:18:22;;;;;;;2.40;2.03;;;9.80;98.10;;;;;;5036640;28;20033;-81
2021/11/01 01:20:50;;;;;;;2.47;1.98;;;9.80;98.20;;;;;;5022089;28;20025;-81
2021/11/01 01:23:15;;;;;;;2.25;1.80;;;9.90;98.20;;;;;;5019456;28;20033;-82
2021/11/01 01:25:47;;;;;;;2.70;1.80;;;9.90;98.10;;;;;;5001640;28;20117;-81
2021/11/01 01:28:14;;;;;;;2.22;1.95;;;9.90;98.10;;;;;;5002878;28;20052;-81
2021/11/01 01:30:40;;;;;;;2.25;1.60;;;9.80;98.20;;;;;;5001983;28;20022;-83
2021/11/01 01:33:10;;;;;;;2.28;1.83;;;9.80;98.20;;;;;;5022067;28;20029;-81
2021/11/01 01:35:42;;;;;;;2.95;1.90;;;9.80;98.30;;;;;;5002995;28;20033;-82
2021/11/01 01:38:09;;;;;;;;;;;9.70;98.40;;;;;;5020291;28;20034;-82
2021/11/01 01:40:35;;;;;;;2.42;1.90;;;9.70;98.70;;;;;;5021941;28;19905;-82
2021/11/01 01:43:04;;;;;;;3.53;2.20;;;9.70;99.00;;;;;;5020212;28;20053;-81
2021/11/01 01:45:31;;;;;;;2.65;1.98;;;9.70;99.00;;;;;;5021115;28;20017;-82
2021/11/01 01:47:58;;;;;;;3.55;2.67;;;9.70;99.00;;;;;;5020686;28;20052;-82
2021/11/01 01:50:24;;;;;;;5.10;2.80;;;9.70;99.10;;;;;;5020926;28;20037;-82
2021/11/01 01:52:50;;;;;;;4.43;2.40;;;9.60;99.30;;;;;;5003968;28;20022;-82
2021/11/01 01:55:17;;;;;;;3.30;2.42;;;9.50;99.60;;;;;;5025711;28;20040;-82
2021/11/01 01:57:43;;;;;;;4.28;2.60;;;9.60;99.80;;;;;;5025216;28;20069;-82
2021/11/01 02:03:01;;;;;;;2.58;2.33;;;9.50;99.90;;;;;;4980241;28;20057;-82
2021/11/01 02:05:37;;;;;;;3.28;2.20;;;9.50;99.90;;;;;;5020486;28;20071;-82
2021/11/01 02:08:06;;;;;;;2.78;2.10;;;9.50;99.90;;;;;;5022273;28;20025;-80
2021/11/01 02:10:42;;;;;;;3.90;2.33;;;9.40;99.90;;;;;;5020328;28;20049;-82
2021/11/01 02:13:18;;;;;;;2.25;1.90;;;9.40;99.90;;;;;;5018978;28;20125;-81
2021/11/01 02:15:52;;;;;;;3.13;2.40;;;9.40;99.90;;;;;;5019805;28;20022;-81
2021/11/01 02:18:19;;;;;;;2.15;1.95;;;9.30;99.90;;;;;;5019209;28;20022;-82
2021/11/01 02:21:04;;;;;;;2.83;2.13;;;9.30;99.90;;;;;;5019509;28;20045;-82
2021/11/01 02:23:52;;;;;;;3.00;2.15;;;9.30;99.90;;;;;;5002082;28;20080;-82
2021/11/01 02:26:19;;;;;;;3.25;2.25;;;9.20;99.90;;;;;;5019152;28;20034;-82
2021/11/01 02:28:47;;;;;;;2.00;1.80;;;9.20;99.90;;;;;;5019401;28;20034;-81
2021/11/01 02:31:19;;;;;;;3.53;1.88;;;9.20;99.90;;;;;;5006963;28;20089;-81
2021/11/01 02:33:46;;;;;;;;;;;9.20;99.90;;;;;;5026204;28;20025;-82
2021/11/01 02:36:12;;;;;;;2.50;2.17;;;9.20;99.90;;;;;;5000179;28;19975;-82
2021/11/01 02:38:38;;;;;;;2.90;2.10;;;9.20;99.90;;;;;;5017894;28;20022;-81
2021/11/01 02:41:17;;;;;;;1.90;1.75;;;9.20;99.90;;;;;;5018208;28;20021;-82
2021/11/01 02:43:48;;;;;;;2.22;1.85;;;9.20;99.90;;;;;;5020389;28;20441;-81
2021/11/01 02:46:14;;;;;;;2.00;1.80;;;9.20;99.90;;;;;;5017904;28;20415;-82
2021/11/01 02:48:43;;;;;;;2.35;2.03;;;9.20;99.90;;;;;;5019297;28;20026;-83
2021/11/01 02:51:09;;;;;;;2.35;2.15;;;9.20;99.90;;;;;;5019398;28;20022;-81
2021/11/01 02:53:35;;;;;;;2.72;2.30;;;9.20;99.90;;;;;;5000428;28;20418;-82
2021/11/01 02:56:00;;;;;;;2.17;1.98;;;9.20;99.90;;;;;;5017192;28;20485;-82
2021/11/01 02:58:27;;;;;;;2.47;2.20;;;9.20;99.90;;;;;;5017683;28;20018;-81
2021/11/01 03:00:53;;;;;;;3.92;2.30;;;9.10;99.90;;;;;;5018400;28;20033;-81
2021/11/01 03:03:18;;;;;;;2.50;2.05;;;9.10;99.90;;;;;;5018092;28;20383;-82
2021/11/01 03:05:45;;;;;;;3.30;2.35;;;9.10;99.90;;;;;;5017625;28;20029;-81
2021/11/01 03:08:10;;;;;;;2.65;2.45;;;9.10;99.90;;;;;;5034475;28;20028;-80
2021/11/01 03:10:37;;;;;;;3.47;2.70;;;9.00;99.90;;;;;;5034931;28;20034;-81
2021/11/01 03:13:03;;;;;;;2.63;2.35;;;9.00;99.90;;;;;;5034359;28;20048;-81
2021/11/01 03:15:29;;;;;;;4.70;2.60;;;9.00;99.90;;;;;;5018689;28;20049;-82
2021/11/01 03:18:04;;;;;;;3.45;2.45;;;9.00;99.90;;;;;;5019307;28;20101;-82
2021/11/01 03:20:35;;;;;;;4.03;2.35;;;9.00;99.90;;;;;;5017705;28;20049;-82
2021/11/01 03:23:10;;;;;;;3.20;2.22;;;9.00;99.90;;;;;;5019928;28;20101;-82
2021/11/01 03:25:48;;;;;;;3.50;2.33;;;9.00;99.90;;;;;;5018219;28;20018;-82
2021/11/01 03:28:14;;;;;;;2.92;1.83;;;9.00;99.90;;;;;;5000018;28;20030;-82
2021/11/01 03:30:42;;;;;;;3.15;2.33;;;9.00;99.90;;;;;;5017762;28;20037;-82
2021/11/01 03:33:08;;;;;;;2.80;2.10;;;9.10;99.90;;;;;;5017803;28;20026;-81
2021/11/01 03:35:35;;;;;;;2.75;2.42;;;9.10;99.90;;;;;;5018007;28;20061;-82
2021/11/01 03:38:02;;;;;;;3.03;1.98;;;9.10;99.90;;;;;;5018035;28;20037;-82
2021/11/01 03:40:32;;;;;;;2.28;1.80;;;9.10;99.90;;;;;;5017874;28;20306;-82
2021/11/01 03:42:59;;;;;;;2.28;1.92;;;9.10;99.90;;;;;;5017933;28;20025;-82
2021/11/01 03:45:26;;;;;;;2.08;1.88;;;9.10;99.90;;;;;;5019387;28;20049;-82
2021/11/01 03:47:54;;;;;;;4.75;1.90;;;9.10;99.90;;;;;;5018458;28;20034;-82
2021/11/01 03:52:53;;;;;;;3.80;2.20;;;9.00;99.90;;;;;;5017839;28;20026;-82
2021/11/01 03:55:21;;;;;;;3.38;2.22;;;9.00;99.90;;;;;;5000443;28;20418;-82
2021/11/01 03:57:48;;;;;;;3.20;2.45;;;9.10;99.90;;;;;;5017189;28;20490;-82
2021/11/01 04:00:14;;;;;;;2.55;2.00;;;9.10;99.90;;;;;;5018255;28;20104;-82
2021/11/01 04:02:41;;;;;;;3.13;1.92;;;9.00;99.90;;;;;;5002632;28;20041;-82
2021/11/01 04:05:07;;;;;;;2.58;2.13;;;9.00;99.90;;;;;;5025580;28;20030;-82
2021/11/01 04:07:33;;;;;;;2.72;1.65;;;8.90;99.90;;;;;;5004503;28;20022;-80
2021/11/01 04:10:00;;;;;;;2.80;2.05;;;9.00;99.90;;;;;;5002505;28;20101;-81
2021/11/01 04:12:26;;;;;;;2.38;1.77;;;8.90;99.90;;;;;;5018407;28;20022;-83
2021/11/01 04:15:11;;;;;;;3.25;2.03;;;8.90;99.90;;;;;;5018586;28;20105;-83
2021/11/01 04:22:37;;;;;;;3.72;1.83;;;8.90;99.90;;;;;;5018190;28;20098;-83
2021/11/01 04:25:05;;;;;;;2.38;1.85;;;8.90;99.90;;;;;;5018659;28;20048;-81
2021/11/01 04:27:30;;;;;;;2.22;1.95;;;8.80;99.90;;;;;;5006747;28;20029;-82
2021/11/01 04:29:58;;;;;;;1.52;1.30;;;8.90;99.90;;;;;;5021661;28;20096;-82
2021/11/01 04:34:57;;;;;;;2.75;1.67;;;8.80;99.90;;;;;;5025690;28;20029;-82
2021/11/01 04:37:23;;;;;;;1.77;1.52;;;8.80;99.90;;;;;;5023954;28;20426;-82
2021/11/01 04:53:06;;;;;;;1.15;0.95;;;8.80;99.80;;;;;;5002727;28;20058;-82
2021/11/01 04:55:33;;;;;;;1.27;1.17;;;8.70;99.60;;;;;;5002207;28;20058;-81
2021/11/01 04:57:59;;;;;;;1.58;1.35;;;8.80;99.50;;;;;;4984409;28;20070;-81
2021/11/01 05:00:26;;;;;;;1.10;1.00;;;8.70;99.40;;;;;;4999569;28;20386;-81
2021/11/01 05:03:26;;;;;;;1.23;1.13;;;8.70;99.40;;;;;;5021077;28;20076;-81
2021/11/01 05:05:38;;;;;;;1.45;1.17;;;8.70;99.40;;;;;;5023177;28;20045;-82
2021/11/01 05:08:04;;;;;;;2.00;1.27;;;8.60;99.50;;;;;;5022466;28;20029;-82
2021/11/01 05:10:39;;;;;;;1.50;1.30;;;8.60;99.70;;;;;;5029108;28;20034;-82
2021/11/01 05:13:17;;;;;;;1.30;1.13;;;8.60;99.90;;;;;;5039432;28;20034;-81
2021/11/01 05:15:50;;;;;;;1.83;1.25;;;8.50;99.90;;;;;;5039384;28;20083;-81
2021/11/01 05:20:59;;;;;;;1.50;1.30;;;8.50;99.90;;;;;;5036850;28;20049;-82
2021/11/01 05:23:37;;;;;;;1.67;1.08;;;8.40;99.90;;;;;;5021773;28;20375;-82
2021/11/01 05:26:06;;;;;;;1.30;1.20;;;8.40;99.90;;;;;;5019500;28;20021;-81
2021/11/01 05:28:47;;;;;;;1.90;1.33;;;8.40;99.90;;;;;;5016963;28;20030;-81
2021/11/01 05:31:19;;;;;;;3.55;2.13;;;8.40;99.90;;;;;;5005193;28;20030;-82
2021/11/01 05:36:12;;;;;;;2.33;1.80;;;8.40;99.90;;;;;;5019555;28;20032;-82
2021/11/01 05:38:37;;;;;;;4.07;2.60;;;8.40;99.90;;;;;;5019132;28;20026;-82
2021/11/01 05:41:03;;;;;;;3.50;2.67;;;8.40;99.90;;;;;;5021295;28;20101;-83
2021/11/01 05:43:30;;;;;;;4.05;2.85;;;8.40;99.90;;;;;;5021130;28;20026;-83
2021/11/01 05:45:56;;;;;;;3.25;2.05;;;8.40;99.90;;;;;;5020506;28;20521;-83
2021/11/01 05:48:23;;;;;;;2.20;1.90;;;8.50;99.90;;;;;;5022497;28;20052;-83
2021/11/01 05:50:49;;;;;;;2.40;1.92;;;8.50;99.90;;;;;;5020584;28;20022;-82
2021/11/01 05:53:15;;;;;;;5.45;2.53;;;8.50;99.90;;;;;;5020064;28;20133;-82
2021/11/01 05:58:54;;;;;;;3.67;2.45;;;8.60;99.90;;;;;;4977295;28;20036;-82
2021/11/01 06:14:41;;;;;;;2.67;1.88;;;9.00;99.30;;;;;;5034182;28;20044;-81
2021/11/01 06:17:27;;;;;;;2.70;1.92;;;9.10;99.20;;;;;;5026898;28;20026;-82
2021/11/01 06:19:53;;;;;;;2.58;1.75;;;9.10;99.10;;;;;;5002919;28;20053;-82
2021/11/01 06:22:18;;;;;;;2.08;1.80;;;9.30;98.90;;;;;;5020004;28;20022;-82
2021/11/01 06:27:14;;;;;;;3.17;1.90;;;9.40;98.40;;;;;;5020454;28;20084;-82
2021/11/01 06:30:07;;;;;;;2.92;1.65;;;9.60;98.20;;;;;;5021594;28;20036;-82
2021/11/01 06:45:54;;;;;;;2.50;2.00;;;10.50;94.70;;;;;;5030169;28;20020;-82
2021/11/01 07:15:11;;;;;;;5.85;3.08;;;10.70;94.80;;;;;;5026497;28;20561;-81
2021/11/01 07:18:00;;;;;;;4.18;3.10;;;10.80;95.50;;;;;;5034867;28;20035;-81
2021/11/01 07:20:37;;;;;;;7.70;3.35;;;10.90;96.00;;;;;;5014076;28;20037;-82
2021/11/01 08:28:15;;;;;;;5.78;4.03;;;13.10;96.40;;;;;;5017702;28;20049;-84
2021/11/01 09:11:07;;;;;;;5.40;4.13;;;12.20;98.70;;;;;;5021121;28;20025;-80
2021/11/01 09:26:54;;;;;;;4.20;2.85;;;12.10;97.50;;;;;;5026067;28;20030;-81
2021/11/01 09:42:49;;;;;;;5.00;2.33;;;11.90;96.30;;;;;;5022605;28;20092;-81
2021/11/01 09:45:17;;;;;;;3.55;2.40;;;11.90;95.90;;;;;;5021966;28;20109;-80
2021/11/01 09:47:44;;;;;;;3.08;2.35;;;11.80;95.60;;;;;;5021872;28;20025;-83
2021/11/01 09:50:13;;;;;;;2.92;2.05;;;11.80;95.90;;;;;;5024590;28;20002;-83
2021/11/01 09:52:43;;;;;;;2.92;2.20;;;11.70;95.40;;;;;;5022621;28;20029;-82
2021/11/01 10:00:32;;;;;;;2.63;1.60;;;11.50;95.50;;;;;;5023203;28;20045;-81
2021/11/01 10:02:58;;;;;;;2.10;1.50;;;11.50;95.60;;;;;;5022334;28;20030;-81
2021/11/01 10:05:26;;;;;;;3.10;1.88;;;11.50;95.70;;;;;;5005764;28;20107;-80
2021/11/01 10:07:52;;;;;;;2.88;1.52;;;11.50;95.50;;;;;;5003780;28;20041;-82
2021/11/01 10:10:18;;;;;;;2.28;1.45;;;11.40;95.80;;;;;;5005244;28;20022;-80
2021/11/01 10:12:47;;;;;;;2.58;1.63;;;11.40;95.70;;;;;;5022899;28;20054;-81
2021/11/01 10:18:06;;;;;;;2.78;1.58;;;11.40;95.60;;;;;;5022524;28;20049;-82
2021/11/01 10:20:40;;;;;;;2.63;1.30;;;11.40;95.80;;;;;;5022141;28;20052;-82
2021/11/01 10:23:23;;;;;;;2.40;1.10;;;11.30;96.30;;;;;;5004406;28;20041;-81
2021/11/01 10:25:50;;;;;;;2.38;1.60;;;11.20;96.90;;;;;;5022413;28;20033;-81
2021/11/01 10:28:25;;;;;;;3.00;1.45;;;11.20;97.00;;;;;;5022399;28;20033;-82
2021/11/01 10:30:51;;;;;;;2.70;1.30;;;11.20;97.40;;;;;;5022683;28;20064;-82
2021/11/01 10:33:17;;;;;;;3.25;1.40;;;11.20;97.10;;;;;;5022790;28;20022;-81
2021/11/01 10:35:43;;;;;;;2.42;1.80;;;11.20;97.30;;;;;;5022478;28;20025;-81
2021/11/01 10:40:49;;;;;;;6.20;2.03;;;11.00;98.30;;;;;;5023180;28;20030;-81
2021/11/01 11:13:25;;;;;;;3.20;1.60;;;10.70;99.90;;;;;;4998306;28;20098;-78
2021/11/01 11:15:55;;;;;;;3.28;1.70;;;10.80;99.90;;;;;;5002242;28;20015;-80
2021/11/01 11:26:28;;;;;;;3.17;1.67;;;11.10;99.90;;;;;;5009039;28;20041;-78
2021/11/01 11:49:26;;;;;;;2.05;1.17;;;11.10;99.90;;;;;;4953530;28;20053;-79
2021/11/01 11:51:55;;;;;;;2.25;1.13;;;11.20;99.90;;;;;;5006495;28;20022;-78
2021/11/01 11:54:34;;;;;;;3.00;1.60;;;11.30;99.90;;;;;;5007204;28;20089;-79
2021/11/01 11:57:04;;;;;;;1.73;1.10;;;11.30;99.90;;;;;;4992363;28;20023;-79
2021/11/01 11:59:36;;;;;;;2.10;1.25;;;11.30;99.90;;;;;;5008788;28;20029;-78
2021/11/01 12:02:07;;;;;;;;;;;11.50;99.90;;;;;;5009990;28;20050;-81
2021/11/01 12:04:37;;;;;;;1.58;0.65;;;11.60;99.90;;;;;;5006824;28;19905;-78
2021/11/01 12:07:04;;;;;;;0.40;0.40;;;11.80;98.20;;;;;;5001230;28;20114;-78
2021/11/01 12:17:03;;;;;;;0.88;0.40;;;11.40;97.20;;;;;;4994276;28;20033;-78
2021/11/01 12:17:32;;;;;;;0.43;0.25;;;11.10;98.00;;;;;;4993486;28;20073;-78
2021/11/01 12:20:02;;;;;;;0.65;0.38;;;10.90;99.50;;;;;;4993526;28;20046;-78
2021/11/01 12:22:31;;;;;;;0.45;0.30;;;10.70;99.90;;;;;;4976894;28;20034;-77
2021/11/01 12:24:58;;;;;;;3.08;1.20;;;10.60;99.90;;;;;;4993481;28;20081;-79
2021/11/01 12:27:24;;;;;;;0.73;0.50;;;10.40;99.90;;;;;;4994088;28;20117;-78
2021/11/01 12:29:51;;;;;;;0.32;0.32;;;10.40;99.90;;;;;;4994212;28;20029;-77
2021/11/01 12:32:16;;;;;;;0.85;0.57;;;10.40;99.90;;;;;;4995816;28;20045;-79
2021/11/01 12:35:38;;;;;;;0.57;0.50;;;10.30;99.90;;;;;;4997322;28;20475;-77
2021/11/01 12:37:54;;;;;;;0.90;0.32;;;10.30;99.90;;;;;;4993705;28;20037;-77
2021/11/01 12:40:28;;;;;;;0.45;0.40;;;10.20;99.90;;;;;;4994195;28;20114;-76
2021/11/01 12:59:43;;;;;;;0.52;0.52;;;10.50;99.90;;;;;;4999655;28;20030;-79
2021/11/01 13:02:16;;;;;;;1.90;0.70;;;10.60;99.90;;;;;;4997931;28;20038;-77
2021/11/01 13:04:49;;;;;;;0.50;0.50;;;10.70;99.90;;;;;;4997439;28;20031;-78
2021/11/01 13:10:24;;;;;;;0.95;0.80;;;10.60;99.90;;;;;;5001234;28;20031;-77
2021/11/01 13:20:34;;;;;;;1.73;0.82;;;10.60;99.90;;;;;;5145006;22;20530;-77
2021/11/01 13:23:01;;;;;;;0.98;0.93;;;10.60;99.90;;;;;;5024815;28;20018;-78
2021/11/01 13:37:08;;;;;;;2.42;0.85;;;10.60;99.90;;;;;;4997066;28;20050;-76
2021/11/01 13:39:35;;;;;;;1.45;1.00;;;10.40;99.90;;;;;;4997031;28;20014;-78
2021/11/01 13:42:01;;;;;;;1.27;1.17;;;10.40;99.90;;;;;;4981019;28;20498;-77
2021/11/01 13:44:30;;;;;;;0.73;0.70;;;10.30;99.90;;;;;;4997727;28;20054;-77
2021/11/01 13:47:02;;;;;;;0.93;0.93;;;10.30;99.90;;;;;;4997289;28;20060;-78
2021/11/01 13:49:35;;;;;;;1.10;1.00;;;10.20;99.90;;;;;;4998654;28;20026;-78
2021/11/01 13:52:16;;;;;;;1.20;0.88;;;10.10;99.90;;;;;;5007331;28;20030;-78
2021/11/01 13:55:01;;;;;;;0.88;0.70;;;10.20;99.90;;;;;;4981792;28;20037;-78
2021/11/01 13:57:31;;;;;;;1.17;0.80;;;10.20;99.90;;;;;;4971830;28;20030;-80
2021/11/01 14:00:19;;;;;;;1.13;0.98;;;10.30;99.90;;;;;;4961754;28;20015;-77
2021/11/01 14:11:22;;;;;;;1.73;1.30;;;10.10;99.90;;;;;;5007235;28;20032;-79
2021/11/01 14:58:10;;;;;;;1.67;0.70;;;9.80;99.90;;;;;;5000845;28;20041;-78
2021/11/01 15:19:02;;;;;;;2.33;1.17;;;9.40;99.90;;;;;;5010237;28;20060;-79
2021/11/01 16:18:53;;;;;;;4.35;3.90;;;8.60;99.90;;;;;;4999015;28;20146;-77
2021/11/01 16:21:19;;;;;;;5.38;2.13;;;8.50;99.90;;;;;;5005088;28;20041;-77
2021/11/01 16:23:45;;;;;;;9.57;6.28;;;8.50;99.90;;;;;;5011390;28;20087;-78
2021/11/01 16:26:22;;;;;;;35.30;17.60;;;8.50;99.90;;;;;;5013413;28;20027;-75
2021/11/01 16:28:49;;;;;;;24.85;13.38;;;8.50;99.90;;;;;;4988108;28;20090;-78
2021/11/01 16:31:28;;;;;;;27.95;12.82;;;8.40;99.90;;;;;;5008830;28;20022;-77
2021/11/01 16:34:00;;;;;;;27.95;12.60;;;8.40;99.90;;;;;;5009744;28;20405;-78
2021/11/01 16:36:47;;;;;;;18.23;8.77;;;8.40;99.90;;;;;;4991956;28;20026;-79
2021/11/01 16:39:17;;;;;;;25.73;11.48;;;8.40;99.90;;;;;;4991151;28;20101;-78
2021/11/01 16:41:45;;;;;;;26.75;10.57;;;8.40;99.90;;;;;;4990663;28;20018;-78
2021/11/01 16:44:32;;;;;;;10.88;5.38;;;8.40;99.90;;;;;;5007221;28;20042;-77
2021/11/01 16:46:58;;;;;;;9.73;4.78;;;8.40;99.90;;;;;;5005496;28;20102;-78
2021/11/01 16:49:27;;;;;;;14.70;5.75;;;8.40;99.90;;;;;;5012784;28;20398;-77
2021/11/01 16:51:53;;;;;;;33.88;21.33;;;8.40;99.90;;;;;;5006990;28;20030;-77
2021/11/01 16:54:24;;;;;;;22.77;15.80;;;8.50;99.90;;;;;;4998305;28;20032;-78
2021/11/01 16:57:10;;;;;;;12.00;8.70;;;8.40;99.90;;;;;;4987073;28;20023;-78
2021/11/01 17:02:46;;;;;;;4.32;3.67;;;8.40;99.90;;;;;;4999926;28;20113;-77
2021/11/01 17:05:29;;;;;;;4.00;2.75;;;8.40;99.90;;;;;;5002077;28;20031;-78
2021/11/01 17:08:19;;;;;;;2.20;1.65;;;8.30;99.90;;;;;;5004601;28;20023;-79
2021/11/01 17:21:39;;;;;;;4.03;1.33;;;8.30;99.90;;;;;;5006158;28;20059;-78
2021/11/01 17:26:51;;;;;;;;;;;8.20;99.90;;;;;;5005040;28;20037;-78
2021/11/01 18:40:11;;;;;;;0.85;0.70;;;8.10;99.90;;;;;;5006503;28;20030;-78
2021/11/01 18:45:17;;;;;;;1.88;0.70;;;8.10;99.90;;;;;;5004552;28;20032;-79
2021/11/01 18:53:23;;;;;;;2.55;1.15;;;8.10;99.90;;;;;;5005750;28;20086;-78
2021/11/01 18:55:55;;;;;;;1.27;1.10;;;8.10;99.90;;;;;;5007146;28;20010;-79
2021/11/01 18:58:26;;;;;;;3.08;0.90;;;8.10;99.90;;;;;;5006910;28;20023;-79
2021/11/01 19:00:55;;;;;;;4.07;1.50;;;8.10;99.90;;;;;;5004609;28;20594;-77
2021/11/01 19:03:24;;;;;;;2.75;1.20;;;8.10;99.90;;;;;;4998996;28;20022;-78
2021/11/01 19:06:20;;;;;;;1.17;0.93;;;8.00;99.90;;;;;;5003314;28;20090;-78
2021/11/01 20:04:36;;;;;;;2.30;0.80;;;7.70;99.90;;;;;;4992428;28;20037;-79
2021/11/01 21:24:50;;;;;;;0.52;0.52;;;7.90;99.90;;;;;;5026013;28;20037;-80
2021/11/01 21:27:20;;;;;;;0.52;0.52;;;7.80;99.90;;;;;;4987028;28;20082;-80
2021/11/01 21:29:46;;;;;;;1.40;0.47;;;7.90;99.90;;;;;;4987433;28;20030;-79
2021/11/01 21:32:12;;;;;;;0.77;0.47;;;7.90;99.90;;;;;;4986851;28;20372;-80
2021/11/01 21:34:41;;;;;;;0.85;0.60;;;7.90;99.90;;;;;;4992007;28;20112;-79
2021/11/01 21:37:08;;;;;;;0.40;0.40;;;7.90;99.90;;;;;;4994034;28;20031;-79
2021/11/01 21:39:36;;;;;;;0.80;0.50;;;7.90;99.90;;;;;;4975396;28;20079;-79
2021/11/01 21:42:02;;;;;;;1.17;0.60;;;7.90;99.90;;;;;;4995091;28;20025;-77
2021/11/01 21:44:32;;;;;;;0.43;0.43;;;8.00;99.90;;;;;;4995288;28;20019;-78
2021/11/01 21:46:58;;;;;;;1.77;0.60;;;8.00;99.90;;;;;;4996089;28;20025;-78
2021/11/01 21:49:23;;;;;;;0.77;0.40;;;8.00;99.90;;;;;;5013765;28;20042;-79
2021/11/01 21:51:51;;;;;;;0.68;0.60;;;8.00;99.90;;;;;;5024455;28;20042;-77
2021/11/01 21:56:51;;;;;;;1.20;1.10;;;8.00;99.90;;;;;;5026241;28;20022;-78
2021/11/01 22:10:04;;;;;;;0.93;0.50;;;8.00;99.90;;;;;;5007306;28;20040;-80
2021/11/01 22:20:32;;;;;;;0.45;0.45;;;8.00;99.90;;;;;;5011134;28;20403;-79
2021/11/01 22:25:39;;;;;;;1.80;0.70;;;7.90;99.90;;;;;;5026615;28;20045;-80
2021/11/01 22:41:27;;;;;;;0.70;0.70;;;7.90;99.90;;;;;;5002333;28;20027;-79
2021/11/01 22:46:54;;;;;;;0.28;0.28;;;7.90;99.90;;;;;;5005745;28;20090;-79
2021/11/01 22:57:33;;;;;;;0.52;0.50;;;7.90;99.90;;;;;;5018014;28;20066;-78
2021/11/01 23:00:01;;;;;;;1.27;0.45;;;7.90;99.90;;;;;;4987399;28;20023;-78
2021/11/01 23:02:27;;;;;;;0.60;0.50;;;7.90;99.90;;;;;;4983026;28;20034;-80
2021/11/01 23:05:04;;;;;;;0.60;0.50;;;7.80;99.90;;;;;;4978975;28;20166;-79
2021/11/01 23:32:04;;;;;;;1.00;0.43;;;7.90;99.90;;;;;;4976858;28;20086;-79
2021/11/01 23:34:30;;;;;;;0.63;0.38;;;7.90;99.90;;;;;;4989885;28;20042;-78
2021/11/01 23:36:59;;;;;;;0.65;0.30;;;7.80;99.90;;;;;;4975015;28;20023;-78
2021/11/01 23:39:25;;;;;;;0.85;0.25;;;7.80;99.90;;;;;;4973881;28;20031;-78
2021/11/01 23:41:51;;;;;;;0.57;0.47;;;7.90;99.90;;;;;;4998974;28;20029;-78
2021/11/01 23:44:18;;;;;;;0.25;0.22;;;7.80;99.90;;;;;;4997031;28;20026;-77
2021/11/01 23:46:44;;;;;;;0.22;0.17;;;7.80;99.90;;;;;;4996540;28;20069;-78
2021/11/01 23:49:09;;;;;;;0.38;0.30;;;7.80;99.90;;;;;;4998943;28;20018;-79
2021/11/01 23:51:37;;;;;;;0.17;0.17;;;7.80;99.90;;;;;;4968819;28;20041;-77
2021/11/01 23:56:49;;;;;;;0.63;0.10;;;7.70;99.90;;;;;;4976011;28;20027;-79
2021/11/01 23:59:15;;;;;;;0.10;0.10;;;7.70;99.90;;;;;;4978182;28;20023;-78
